sensor_id;sensor_type;location;lat;lon;timestamp;P1;durP1;ratioP1;P2;durP2;ratioP2
22131;SDS011;11232;51.748;19.390;2024-03-07T00:00:44;33.73;;;15.00;;
22131;SDS011;11232;51.748;19.390;2024-03-07T00:03:10;31.70;;;14.50;;
22131;SDS011;11232;51.748;19.390;2024-03-07T00:05:36;32.73;;;15.40;;
22131;SDS011;11232;51.748;19.390;2024-03-07T00:08:03;35.93;;;15.97;;
22131;SDS011;11232;51.748;19.390;2024-03-07T00:10:29;33.90;;;15.03;;
22131;SDS011;11232;51.748;19.390;2024-03-07T00:12:55;32.40;;;16.27;;
22131;SDS011;11232;51.748;19.390;2024-03-07T00:15:21;35.13;;;16.33;;
22131;SDS011;11232;51.748;19.390;2024-03-07T00:17:47;38.63;;;15.90;;
22131;SDS011;11232;51.748;19.390;2024-03-07T00:20:13;35.07;;;16.00;;
22131;SDS011;11232;51.748;19.390;2024-03-07T00:22:42;39.50;;;16.27;;
22131;SDS011;11232;51.748;19.390;2024-03-07T00:25:09;34.50;;;16.07;;
22131;SDS011;11232;51.748;19.390;2024-03-07T00:27:36;33.93;;;16.47;;
22131;SDS011;11232;51.748;19.390;2024-03-07T00:30:03;33.33;;;16.07;;
22131;SDS011;11232;51.748;19.390;2024-03-07T00:32:30;33.47;;;16.13;;
22131;SDS011;11232;51.748;19.390;2024-03-07T00:35:00;32.23;;;15.13;;
22131;SDS011;11232;51.748;19.390;2024-03-07T00:37:28;34.50;;;16.37;;
22131;SDS011;11232;51.748;19.390;2024-03-07T00:39:55;37.53;;;16.80;;
22131;SDS011;11232;51.748;19.390;2024-03-07T00:42:21;36.10;;;16.60;;
22131;SDS011;11232;51.748;19.390;2024-03-07T00:44:48;38.67;;;17.43;;
22131;SDS011;11232;51.748;19.390;2024-03-07T00:47:17;34.40;;;16.73;;
22131;SDS011;11232;51.748;19.390;2024-03-07T00:49:43;38.50;;;16.90;;
22131;SDS011;11232;51.748;19.390;2024-03-07T00:52:11;35.23;;;17.43;;
22131;SDS011;11232;51.748;19.390;2024-03-07T00:54:37;40.07;;;17.67;;
22131;SDS011;11232;51.748;19.390;2024-03-07T00:57:03;35.50;;;17.37;;
22131;SDS011;11232;51.748;19.390;2024-03-07T00:59:29;44.10;;;17.97;;
22131;SDS011;11232;51.748;19.390;2024-03-07T01:01:55;40.17;;;17.47;;
22131;SDS011;11232;51.748;19.390;2024-03-07T01:04:21;34.33;;;16.63;;
22131;SDS011;11232;51.748;19.390;2024-03-07T01:06:47;37.87;;;17.47;;
22131;SDS011;11232;51.748;19.390;2024-03-07T01:09:13;35.63;;;17.40;;
22131;SDS011;11232;51.748;19.390;2024-03-07T01:11:44;35.03;;;18.03;;
22131;SDS011;11232;51.748;19.390;2024-03-07T01:14:10;41.60;;;17.13;;
22131;SDS011;11232;51.748;19.390;2024-03-07T01:16:36;37.50;;;18.13;;
22131;SDS011;11232;51.748;19.390;2024-03-07T01:19:02;40.57;;;18.47;;
22131;SDS011;11232;51.748;19.390;2024-03-07T01:21:31;44.43;;;18.60;;
22131;SDS011;11232;51.748;19.390;2024-03-07T01:23:58;39.80;;;18.03;;
22131;SDS011;11232;51.748;19.390;2024-03-07T01:26:25;39.37;;;18.27;;
22131;SDS011;11232;51.748;19.390;2024-03-07T01:28:52;46.70;;;18.70;;
22131;SDS011;11232;51.748;19.390;2024-03-07T01:31:19;37.37;;;17.07;;
22131;SDS011;11232;51.748;19.390;2024-03-07T01:33:45;38.77;;;17.73;;
22131;SDS011;11232;51.748;19.390;2024-03-07T01:36:11;39.13;;;17.67;;
22131;SDS011;11232;51.748;19.390;2024-03-07T01:38:37;40.23;;;17.60;;
22131;SDS011;11232;51.748;19.390;2024-03-07T01:41:03;36.03;;;17.87;;
22131;SDS011;11232;51.748;19.390;2024-03-07T01:43:29;39.80;;;18.20;;
22131;SDS011;11232;51.748;19.390;2024-03-07T01:45:56;34.97;;;17.10;;
22131;SDS011;11232;51.748;19.390;2024-03-07T01:48:27;34.60;;;17.40;;
22131;SDS011;11232;51.748;19.390;2024-03-07T01:50:57;38.07;;;17.77;;
22131;SDS011;11232;51.748;19.390;2024-03-07T01:53:24;36.07;;;16.83;;
22131;SDS011;11232;51.748;19.390;2024-03-07T01:55:50;37.47;;;18.53;;
22131;SDS011;11232;51.748;19.390;2024-03-07T01:58:18;34.73;;;17.23;;
22131;SDS011;11232;51.748;19.390;2024-03-07T02:00:44;36.70;;;18.43;;
22131;SDS011;11232;51.748;19.390;2024-03-07T02:03:11;39.97;;;17.40;;
22131;SDS011;11232;51.748;19.390;2024-03-07T02:05:38;39.83;;;17.63;;
22131;SDS011;11232;51.748;19.390;2024-03-07T02:08:04;48.67;;;18.60;;
22131;SDS011;11232;51.748;19.390;2024-03-07T02:10:31;43.33;;;17.77;;
22131;SDS011;11232;51.748;19.390;2024-03-07T02:12:57;43.33;;;18.17;;
22131;SDS011;11232;51.748;19.390;2024-03-07T02:15:23;38.83;;;18.20;;
22131;SDS011;11232;51.748;19.390;2024-03-07T02:17:49;42.73;;;18.67;;
22131;SDS011;11232;51.748;19.390;2024-03-07T02:20:15;35.47;;;17.47;;
22131;SDS011;11232;51.748;19.390;2024-03-07T02:22:41;35.23;;;17.43;;
22131;SDS011;11232;51.748;19.390;2024-03-07T02:25:07;37.47;;;17.33;;
22131;SDS011;11232;51.748;19.390;2024-03-07T02:27:37;36.67;;;17.77;;
22131;SDS011;11232;51.748;19.390;2024-03-07T02:30:04;35.23;;;16.47;;
22131;SDS011;11232;51.748;19.390;2024-03-07T02:32:33;38.10;;;17.63;;
22131;SDS011;11232;51.748;19.390;2024-03-07T02:34:59;38.07;;;17.90;;
22131;SDS011;11232;51.748;19.390;2024-03-07T02:37:25;42.40;;;17.17;;
22131;SDS011;11232;51.748;19.390;2024-03-07T02:39:52;38.33;;;18.60;;
22131;SDS011;11232;51.748;19.390;2024-03-07T02:42:18;36.73;;;17.60;;
22131;SDS011;11232;51.748;19.390;2024-03-07T02:44:45;40.40;;;17.53;;
22131;SDS011;11232;51.748;19.390;2024-03-07T02:47:11;39.83;;;17.60;;
22131;SDS011;11232;51.748;19.390;2024-03-07T02:49:37;38.80;;;18.00;;
22131;SDS011;11232;51.748;19.390;2024-03-07T02:52:03;37.73;;;17.77;;
22131;SDS011;11232;51.748;19.390;2024-03-07T02:54:32;33.17;;;16.63;;
22131;SDS011;11232;51.748;19.390;2024-03-07T02:56:58;35.23;;;17.20;;
22131;SDS011;11232;51.748;19.390;2024-03-07T02:59:25;37.73;;;17.37;;
22131;SDS011;11232;51.748;19.390;2024-03-07T03:01:51;38.10;;;17.27;;
22131;SDS011;11232;51.748;19.390;2024-03-07T03:04:17;38.07;;;17.50;;
22131;SDS011;11232;51.748;19.390;2024-03-07T03:06:43;40.40;;;16.77;;
22131;SDS011;11232;51.748;19.390;2024-03-07T03:09:09;39.07;;;17.33;;
22131;SDS011;11232;51.748;19.390;2024-03-07T03:11:42;37.23;;;16.80;;
22131;SDS011;11232;51.748;19.390;2024-03-07T03:14:08;37.33;;;17.37;;
22131;SDS011;11232;51.748;19.390;2024-03-07T03:16:36;33.70;;;15.33;;
22131;SDS011;11232;51.748;19.390;2024-03-07T03:19:02;32.17;;;14.93;;
22131;SDS011;11232;51.748;19.390;2024-03-07T03:21:27;34.67;;;15.47;;
22131;SDS011;11232;51.748;19.390;2024-03-07T03:23:53;33.23;;;15.63;;
22131;SDS011;11232;51.748;19.390;2024-03-07T03:26:20;30.00;;;15.17;;
22131;SDS011;11232;51.748;19.390;2024-03-07T03:28:46;32.03;;;14.43;;
22131;SDS011;11232;51.748;19.390;2024-03-07T03:31:13;30.93;;;15.00;;
22131;SDS011;11232;51.748;19.390;2024-03-07T03:33:39;25.43;;;14.30;;
22131;SDS011;11232;51.748;19.390;2024-03-07T03:36:06;30.23;;;13.60;;
22131;SDS011;11232;51.748;19.390;2024-03-07T03:38:32;24.50;;;12.63;;
22131;SDS011;11232;51.748;19.390;2024-03-07T03:40:58;30.20;;;13.87;;
22131;SDS011;11232;51.748;19.390;2024-03-07T03:43:24;26.67;;;13.37;;
22131;SDS011;11232;51.748;19.390;2024-03-07T03:45:50;24.10;;;12.60;;
22131;SDS011;11232;51.748;19.390;2024-03-07T03:48:16;31.00;;;13.80;;
22131;SDS011;11232;51.748;19.390;2024-03-07T03:50:42;25.07;;;12.43;;
22131;SDS011;11232;51.748;19.390;2024-03-07T03:53:08;29.77;;;13.40;;
22131;SDS011;11232;51.748;19.390;2024-03-07T03:55:34;26.53;;;13.13;;
22131;SDS011;11232;51.748;19.390;2024-03-07T03:58:01;24.70;;;12.73;;
22131;SDS011;11232;51.748;19.390;2024-03-07T04:00:27;25.97;;;12.47;;
22131;SDS011;11232;51.748;19.390;2024-03-07T04:02:53;26.63;;;13.17;;
22131;SDS011;11232;51.748;19.390;2024-03-07T04:05:19;24.43;;;12.97;;
22131;SDS011;11232;51.748;19.390;2024-03-07T04:07:46;27.57;;;12.77;;
22131;SDS011;11232;51.748;19.390;2024-03-07T04:10:12;26.70;;;12.57;;
22131;SDS011;11232;51.748;19.390;2024-03-07T04:12:39;27.07;;;13.77;;
22131;SDS011;11232;51.748;19.390;2024-03-07T04:15:06;27.47;;;13.37;;
22131;SDS011;11232;51.748;19.390;2024-03-07T04:17:33;25.53;;;12.23;;
22131;SDS011;11232;51.748;19.390;2024-03-07T04:20:02;27.63;;;12.37;;
22131;SDS011;11232;51.748;19.390;2024-03-07T04:22:32;28.37;;;13.63;;
22131;SDS011;11232;51.748;19.390;2024-03-07T04:24:59;25.70;;;12.57;;
22131;SDS011;11232;51.748;19.390;2024-03-07T04:27:26;34.03;;;14.20;;
22131;SDS011;11232;51.748;19.390;2024-03-07T04:29:52;28.23;;;13.40;;
22131;SDS011;11232;51.748;19.390;2024-03-07T04:32:18;29.60;;;13.67;;
22131;SDS011;11232;51.748;19.390;2024-03-07T04:34:44;26.33;;;13.13;;
22131;SDS011;11232;51.748;19.390;2024-03-07T04:37:10;27.53;;;12.93;;
22131;SDS011;11232;51.748;19.390;2024-03-07T04:39:38;27.90;;;13.77;;
22131;SDS011;11232;51.748;19.390;2024-03-07T04:42:04;26.30;;;12.43;;
22131;SDS011;11232;51.748;19.390;2024-03-07T04:44:31;24.70;;;13.23;;
22131;SDS011;11232;51.748;19.390;2024-03-07T04:46:58;29.23;;;13.87;;
22131;SDS011;11232;51.748;19.390;2024-03-07T04:49:25;30.07;;;14.07;;
22131;SDS011;11232;51.748;19.390;2024-03-07T04:51:52;26.57;;;13.37;;
22131;SDS011;11232;51.748;19.390;2024-03-07T04:54:18;26.73;;;14.07;;
22131;SDS011;11232;51.748;19.390;2024-03-07T04:56:45;28.00;;;13.57;;
22131;SDS011;11232;51.748;19.390;2024-03-07T04:59:11;28.17;;;13.90;;
22131;SDS011;11232;51.748;19.390;2024-03-07T05:01:37;25.77;;;12.80;;
22131;SDS011;11232;51.748;19.390;2024-03-07T05:04:04;27.67;;;12.07;;
22131;SDS011;11232;51.748;19.390;2024-03-07T05:06:30;25.53;;;13.10;;
22131;SDS011;11232;51.748;19.390;2024-03-07T05:09:03;23.40;;;11.97;;
22131;SDS011;11232;51.748;19.390;2024-03-07T05:11:29;24.93;;;12.20;;
22131;SDS011;11232;51.748;19.390;2024-03-07T05:13:56;27.07;;;11.77;;
22131;SDS011;11232;51.748;19.390;2024-03-07T05:16:23;26.37;;;12.27;;
22131;SDS011;11232;51.748;19.390;2024-03-07T05:18:49;26.30;;;12.63;;
22131;SDS011;11232;51.748;19.390;2024-03-07T05:21:19;24.77;;;11.97;;
22131;SDS011;11232;51.748;19.390;2024-03-07T05:23:57;24.53;;;13.17;;
22131;SDS011;11232;51.748;19.390;2024-03-07T05:26:23;26.70;;;12.20;;
22131;SDS011;11232;51.748;19.390;2024-03-07T05:28:49;34.80;;;13.70;;
22131;SDS011;11232;51.748;19.390;2024-03-07T05:31:16;28.07;;;12.20;;
22131;SDS011;11232;51.748;19.390;2024-03-07T05:33:43;27.20;;;11.87;;
22131;SDS011;11232;51.748;19.390;2024-03-07T05:36:09;24.10;;;11.20;;
22131;SDS011;11232;51.748;19.390;2024-03-07T05:38:41;25.20;;;11.77;;
22131;SDS011;11232;51.748;19.390;2024-03-07T05:41:08;28.70;;;12.53;;
22131;SDS011;11232;51.748;19.390;2024-03-07T05:43:35;35.67;;;15.27;;
22131;SDS011;11232;51.748;19.390;2024-03-07T05:46:01;24.30;;;12.37;;
22131;SDS011;11232;51.748;19.390;2024-03-07T05:48:28;24.33;;;12.20;;
22131;SDS011;11232;51.748;19.390;2024-03-07T05:50:54;24.07;;;12.03;;
22131;SDS011;11232;51.748;19.390;2024-03-07T05:53:20;23.50;;;12.53;;
22131;SDS011;11232;51.748;19.390;2024-03-07T05:55:46;21.53;;;11.10;;
22131;SDS011;11232;51.748;19.390;2024-03-07T05:58:13;27.40;;;12.03;;
22131;SDS011;11232;51.748;19.390;2024-03-07T06:00:39;29.27;;;13.53;;
22131;SDS011;11232;51.748;19.390;2024-03-07T06:03:05;24.60;;;11.67;;
22131;SDS011;11232;51.748;19.390;2024-03-07T06:05:33;24.70;;;12.07;;
22131;SDS011;11232;51.748;19.390;2024-03-07T06:07:59;25.30;;;11.37;;
22131;SDS011;11232;51.748;19.390;2024-03-07T06:10:25;23.70;;;11.70;;
22131;SDS011;11232;51.748;19.390;2024-03-07T06:12:52;24.37;;;12.57;;
22131;SDS011;11232;51.748;19.390;2024-03-07T06:15:18;28.30;;;12.60;;
22131;SDS011;11232;51.748;19.390;2024-03-07T06:17:45;20.07;;;11.50;;
22131;SDS011;11232;51.748;19.390;2024-03-07T06:20:12;24.90;;;12.57;;
22131;SDS011;11232;51.748;19.390;2024-03-07T06:22:50;30.80;;;12.93;;
22131;SDS011;11232;51.748;19.390;2024-03-07T06:25:17;23.77;;;12.33;;
22131;SDS011;11232;51.748;19.390;2024-03-07T06:28:01;25.03;;;11.40;;
22131;SDS011;11232;51.748;19.390;2024-03-07T06:30:40;31.80;;;12.37;;
22131;SDS011;11232;51.748;19.390;2024-03-07T06:33:06;26.97;;;12.67;;
22131;SDS011;11232;51.748;19.390;2024-03-07T06:35:33;26.93;;;11.67;;
22131;SDS011;11232;51.748;19.390;2024-03-07T06:38:03;28.57;;;12.70;;
22131;SDS011;11232;51.748;19.390;2024-03-07T06:40:30;30.23;;;13.30;;
22131;SDS011;11232;51.748;19.390;2024-03-07T06:42:57;27.23;;;13.47;;
22131;SDS011;11232;51.748;19.390;2024-03-07T06:45:23;29.60;;;12.17;;
22131;SDS011;11232;51.748;19.390;2024-03-07T06:47:50;24.00;;;12.40;;
22131;SDS011;11232;51.748;19.390;2024-03-07T06:50:27;26.90;;;12.30;;
22131;SDS011;11232;51.748;19.390;2024-03-07T06:52:55;25.80;;;11.53;;
22131;SDS011;11232;51.748;19.390;2024-03-07T06:55:25;45.03;;;20.97;;
22131;SDS011;11232;51.748;19.390;2024-03-07T06:57:52;27.40;;;13.07;;
22131;SDS011;11232;51.748;19.390;2024-03-07T07:00:20;21.17;;;11.43;;
22131;SDS011;11232;51.748;19.390;2024-03-07T07:02:52;24.33;;;12.30;;
22131;SDS011;11232;51.748;19.390;2024-03-07T07:05:23;21.90;;;11.60;;
22131;SDS011;11232;51.748;19.390;2024-03-07T07:07:55;24.47;;;11.90;;
22131;SDS011;11232;51.748;19.390;2024-03-07T07:10:22;28.67;;;12.60;;
22131;SDS011;11232;51.748;19.390;2024-03-07T07:12:50;23.87;;;12.70;;
22131;SDS011;11232;51.748;19.390;2024-03-07T07:15:20;21.13;;;12.47;;
22131;SDS011;11232;51.748;19.390;2024-03-07T07:17:47;21.17;;;12.00;;
22131;SDS011;11232;51.748;19.390;2024-03-07T07:20:16;24.53;;;12.40;;
22131;SDS011;11232;51.748;19.390;2024-03-07T07:22:43;19.73;;;11.43;;
22131;SDS011;11232;51.748;19.390;2024-03-07T07:25:11;24.50;;;12.63;;
22131;SDS011;11232;51.748;19.390;2024-03-07T07:27:44;23.03;;;12.23;;
22131;SDS011;11232;51.748;19.390;2024-03-07T07:30:11;19.27;;;11.40;;
22131;SDS011;11232;51.748;19.390;2024-03-07T07:32:37;24.30;;;12.80;;
22131;SDS011;11232;51.748;19.390;2024-03-07T07:35:03;21.80;;;13.00;;
22131;SDS011;11232;51.748;19.390;2024-03-07T07:37:34;26.88;;;12.65;;
22131;SDS011;11232;51.748;19.390;2024-03-07T07:40:02;24.17;;;12.70;;
22131;SDS011;11232;51.748;19.390;2024-03-07T07:42:28;25.20;;;13.20;;
22131;SDS011;11232;51.748;19.390;2024-03-07T07:44:54;21.63;;;12.57;;
22131;SDS011;11232;51.748;19.390;2024-03-07T07:47:20;26.65;;;12.52;;
22131;SDS011;11232;51.748;19.390;2024-03-07T07:49:46;23.90;;;13.15;;
22131;SDS011;11232;51.748;19.390;2024-03-07T07:52:13;26.77;;;13.23;;
22131;SDS011;11232;51.748;19.390;2024-03-07T07:54:42;19.75;;;12.13;;
22131;SDS011;11232;51.748;19.390;2024-03-07T07:57:08;27.30;;;13.65;;
22131;SDS011;11232;51.748;19.390;2024-03-07T07:59:34;19.60;;;12.73;;
22131;SDS011;11232;51.748;19.390;2024-03-07T08:02:01;21.77;;;12.60;;
22131;SDS011;11232;51.748;19.390;2024-03-07T08:04:31;22.27;;;13.00;;
22131;SDS011;11232;51.748;19.390;2024-03-07T08:06:57;22.35;;;14.23;;
22131;SDS011;11232;51.748;19.390;2024-03-07T08:09:23;24.30;;;15.38;;
22131;SDS011;11232;51.748;19.390;2024-03-07T08:11:49;22.17;;;13.00;;
22131;SDS011;11232;51.748;19.390;2024-03-07T08:14:17;22.02;;;14.27;;
22131;SDS011;11232;51.748;19.390;2024-03-07T08:16:43;20.02;;;13.52;;
22131;SDS011;11232;51.748;19.390;2024-03-07T08:19:09;21.95;;;13.65;;
22131;SDS011;11232;51.748;19.390;2024-03-07T08:21:36;24.40;;;14.82;;
22131;SDS011;11232;51.748;19.390;2024-03-07T08:24:02;20.85;;;13.70;;
22131;SDS011;11232;51.748;19.390;2024-03-07T08:26:35;17.95;;;12.35;;
22131;SDS011;11232;51.748;19.390;2024-03-07T08:29:02;17.80;;;12.75;;
22131;SDS011;11232;51.748;19.390;2024-03-07T08:31:28;20.08;;;13.25;;
22131;SDS011;11232;51.748;19.390;2024-03-07T08:33:54;18.88;;;12.88;;
22131;SDS011;11232;51.748;19.390;2024-03-07T08:36:20;19.45;;;12.90;;
22131;SDS011;11232;51.748;19.390;2024-03-07T08:38:47;19.23;;;13.32;;
22131;SDS011;11232;51.748;19.390;2024-03-07T08:41:13;22.55;;;13.73;;
22131;SDS011;11232;51.748;19.390;2024-03-07T08:43:39;18.02;;;12.73;;
22131;SDS011;11232;51.748;19.390;2024-03-07T08:46:06;20.95;;;12.60;;
22131;SDS011;11232;51.748;19.390;2024-03-07T08:48:33;21.48;;;13.52;;
22131;SDS011;11232;51.748;19.390;2024-03-07T08:51:00;22.98;;;13.57;;
22131;SDS011;11232;51.748;19.390;2024-03-07T08:53:26;27.60;;;14.20;;
22131;SDS011;11232;51.748;19.390;2024-03-07T08:55:52;22.55;;;14.30;;
22131;SDS011;11232;51.748;19.390;2024-03-07T08:58:18;19.67;;;12.93;;
22131;SDS011;11232;51.748;19.390;2024-03-07T09:00:44;21.58;;;13.48;;
22131;SDS011;11232;51.748;19.390;2024-03-07T09:03:10;22.27;;;14.07;;
22131;SDS011;11232;51.748;19.390;2024-03-07T09:05:37;19.05;;;13.13;;
22131;SDS011;11232;51.748;19.390;2024-03-07T09:08:04;23.83;;;13.02;;
22131;SDS011;11232;51.748;19.390;2024-03-07T09:10:30;19.00;;;13.38;;
22131;SDS011;11232;51.748;19.390;2024-03-07T09:12:56;17.08;;;12.27;;
22131;SDS011;11232;51.748;19.390;2024-03-07T09:15:22;19.92;;;12.95;;
22131;SDS011;11232;51.748;19.390;2024-03-07T09:17:49;17.27;;;12.10;;
22131;SDS011;11232;51.748;19.390;2024-03-07T09:20:15;21.25;;;11.98;;
22131;SDS011;11232;51.748;19.390;2024-03-07T09:22:44;21.38;;;12.07;;
22131;SDS011;11232;51.748;19.390;2024-03-07T09:25:10;20.80;;;12.13;;
22131;SDS011;11232;51.748;19.390;2024-03-07T09:27:38;14.60;;;11.88;;
22131;SDS011;11232;51.748;19.390;2024-03-07T09:30:05;22.60;;;17.00;;
22131;SDS011;11232;51.748;19.390;2024-03-07T09:32:37;24.05;;;16.65;;
22131;SDS011;11232;51.748;19.390;2024-03-07T09:35:04;16.02;;;12.43;;
22131;SDS011;11232;51.748;19.390;2024-03-07T09:37:32;18.98;;;12.65;;
22131;SDS011;11232;51.748;19.390;2024-03-07T09:39:58;17.92;;;12.07;;
22131;SDS011;11232;51.748;19.390;2024-03-07T09:42:24;16.42;;;11.98;;
22131;SDS011;11232;51.748;19.390;2024-03-07T09:44:53;18.35;;;11.30;;
22131;SDS011;11232;51.748;19.390;2024-03-07T09:47:21;19.25;;;11.75;;
22131;SDS011;11232;51.748;19.390;2024-03-07T09:49:47;15.45;;;11.45;;
22131;SDS011;11232;51.748;19.390;2024-03-07T09:52:13;16.15;;;11.63;;
22131;SDS011;11232;51.748;19.390;2024-03-07T09:54:40;15.15;;;12.07;;
22131;SDS011;11232;51.748;19.390;2024-03-07T09:57:06;16.00;;;12.23;;
22131;SDS011;11232;51.748;19.390;2024-03-07T09:59:36;17.98;;;12.80;;
22131;SDS011;11232;51.748;19.390;2024-03-07T10:02:05;16.88;;;12.00;;
22131;SDS011;11232;51.748;19.390;2024-03-07T10:07:06;15.77;;;12.00;;
22131;SDS011;11232;51.748;19.390;2024-03-07T10:09:34;19.77;;;12.77;;
22131;SDS011;11232;51.748;19.390;2024-03-07T10:12:02;19.73;;;12.23;;
22131;SDS011;11232;51.748;19.390;2024-03-07T10:14:31;15.50;;;12.35;;
22131;SDS011;11232;51.748;19.390;2024-03-07T10:16:58;18.45;;;12.95;;
22131;SDS011;11232;51.748;19.390;2024-03-07T10:19:24;18.85;;;13.27;;
22131;SDS011;11232;51.748;19.390;2024-03-07T10:21:50;16.85;;;11.63;;
22131;SDS011;11232;51.748;19.390;2024-03-07T10:24:23;20.42;;;11.52;;
22131;SDS011;11232;51.748;19.390;2024-03-07T10:26:49;16.92;;;12.38;;
22131;SDS011;11232;51.748;19.390;2024-03-07T10:29:16;16.80;;;11.55;;
22131;SDS011;11232;51.748;19.390;2024-03-07T10:31:44;14.80;;;12.73;;
22131;SDS011;11232;51.748;19.390;2024-03-07T10:34:11;17.05;;;12.40;;
22131;SDS011;11232;51.748;19.390;2024-03-07T10:36:37;17.17;;;12.23;;
22131;SDS011;11232;51.748;19.390;2024-03-07T10:39:05;17.27;;;12.07;;
22131;SDS011;11232;51.748;19.390;2024-03-07T10:41:44;16.70;;;12.10;;
22131;SDS011;11232;51.748;19.390;2024-03-07T10:44:11;15.68;;;12.10;;
22131;SDS011;11232;51.748;19.390;2024-03-07T10:46:38;16.92;;;12.00;;
22131;SDS011;11232;51.748;19.390;2024-03-07T10:49:04;14.23;;;11.60;;
22131;SDS011;11232;51.748;19.390;2024-03-07T10:51:35;14.27;;;11.27;;
22131;SDS011;11232;51.748;19.390;2024-03-07T10:59:17;14.50;;;11.63;;
22131;SDS011;11232;51.748;19.390;2024-03-07T11:01:53;20.08;;;12.55;;
22131;SDS011;11232;51.748;19.390;2024-03-07T11:04:22;18.95;;;12.50;;
22131;SDS011;11232;51.748;19.390;2024-03-07T11:06:49;17.40;;;12.10;;
22131;SDS011;11232;51.748;19.390;2024-03-07T11:09:15;17.90;;;12.70;;
22131;SDS011;11232;51.748;19.390;2024-03-07T11:11:48;18.52;;;13.65;;
22131;SDS011;11232;51.748;19.390;2024-03-07T11:14:14;22.02;;;14.25;;
22131;SDS011;11232;51.748;19.390;2024-03-07T11:16:41;18.75;;;14.32;;
22131;SDS011;11232;51.748;19.390;2024-03-07T11:19:17;16.50;;;13.00;;
22131;SDS011;11232;51.748;19.390;2024-03-07T11:21:44;19.02;;;12.95;;
22131;SDS011;11232;51.748;19.390;2024-03-07T11:24:22;15.00;;;12.40;;
22131;SDS011;11232;51.748;19.390;2024-03-07T11:26:48;16.38;;;12.73;;
22131;SDS011;11232;51.748;19.390;2024-03-07T11:31:59;20.42;;;13.68;;
22131;SDS011;11232;51.748;19.390;2024-03-07T11:34:29;19.60;;;13.48;;
22131;SDS011;11232;51.748;19.390;2024-03-07T11:36:55;19.02;;;14.35;;
22131;SDS011;11232;51.748;19.390;2024-03-07T11:39:44;19.33;;;13.95;;
22131;SDS011;11232;51.748;19.390;2024-03-07T11:42:22;19.25;;;14.60;;
22131;SDS011;11232;51.748;19.390;2024-03-07T11:44:50;20.13;;;13.00;;
22131;SDS011;11232;51.748;19.390;2024-03-07T11:47:16;16.85;;;13.15;;
22131;SDS011;11232;51.748;19.390;2024-03-07T11:49:43;17.33;;;12.77;;
22131;SDS011;11232;51.748;19.390;2024-03-07T11:52:13;17.02;;;13.20;;
22131;SDS011;11232;51.748;19.390;2024-03-07T11:54:41;18.77;;;13.48;;
22131;SDS011;11232;51.748;19.390;2024-03-07T11:57:16;20.27;;;13.70;;
22131;SDS011;11232;51.748;19.390;2024-03-07T11:59:44;21.38;;;13.90;;
22131;SDS011;11232;51.748;19.390;2024-03-07T12:02:11;20.58;;;13.63;;
22131;SDS011;11232;51.748;19.390;2024-03-07T12:04:39;17.75;;;13.52;;
22131;SDS011;11232;51.748;19.390;2024-03-07T12:07:05;20.25;;;13.43;;
22131;SDS011;11232;51.748;19.390;2024-03-07T12:09:31;17.90;;;14.15;;
22131;SDS011;11232;51.748;19.390;2024-03-07T12:12:01;19.15;;;14.40;;
22131;SDS011;11232;51.748;19.390;2024-03-07T12:14:27;20.27;;;13.75;;
22131;SDS011;11232;51.748;19.390;2024-03-07T12:16:54;18.88;;;13.40;;
22131;SDS011;11232;51.748;19.390;2024-03-07T12:19:21;20.35;;;13.30;;
22131;SDS011;11232;51.748;19.390;2024-03-07T12:21:47;18.98;;;14.45;;
22131;SDS011;11232;51.748;19.390;2024-03-07T12:24:14;20.83;;;13.82;;
22131;SDS011;11232;51.748;19.390;2024-03-07T12:26:40;18.98;;;13.80;;
22131;SDS011;11232;51.748;19.390;2024-03-07T12:29:12;19.15;;;13.25;;
22131;SDS011;11232;51.748;19.390;2024-03-07T12:31:38;22.65;;;14.25;;
22131;SDS011;11232;51.748;19.390;2024-03-07T12:34:05;20.73;;;14.10;;
22131;SDS011;11232;51.748;19.390;2024-03-07T12:36:34;18.35;;;12.45;;
22131;SDS011;11232;51.748;19.390;2024-03-07T12:39:10;16.85;;;12.38;;
22131;SDS011;11232;51.748;19.390;2024-03-07T12:41:49;20.60;;;12.35;;
22131;SDS011;11232;51.748;19.390;2024-03-07T12:44:19;18.10;;;12.48;;
22131;SDS011;11232;51.748;19.390;2024-03-07T12:46:48;20.67;;;12.57;;
22131;SDS011;11232;51.748;19.390;2024-03-07T12:49:23;20.70;;;12.73;;
22131;SDS011;11232;51.748;19.390;2024-03-07T12:51:55;19.65;;;12.70;;
22131;SDS011;11232;51.748;19.390;2024-03-07T12:54:24;21.52;;;12.55;;
22131;SDS011;11232;51.748;19.390;2024-03-07T12:56:52;25.02;;;13.98;;
22131;SDS011;11232;51.748;19.390;2024-03-07T12:59:18;18.25;;;12.95;;
22131;SDS011;11232;51.748;19.390;2024-03-07T13:01:48;18.27;;;12.10;;
22131;SDS011;11232;51.748;19.390;2024-03-07T13:04:15;20.15;;;11.60;;
22131;SDS011;11232;51.748;19.390;2024-03-07T13:06:41;17.17;;;11.15;;
22131;SDS011;11232;51.748;19.390;2024-03-07T13:09:12;16.35;;;10.95;;
22131;SDS011;11232;51.748;19.390;2024-03-07T13:11:40;18.90;;;12.18;;
22131;SDS011;11232;51.748;19.390;2024-03-07T13:14:10;17.13;;;11.70;;
22131;SDS011;11232;51.748;19.390;2024-03-07T13:16:36;17.58;;;11.38;;
22131;SDS011;11232;51.748;19.390;2024-03-07T13:19:02;19.77;;;12.55;;
22131;SDS011;11232;51.748;19.390;2024-03-07T13:21:30;16.73;;;11.60;;
22131;SDS011;11232;51.748;19.390;2024-03-07T13:23:56;22.67;;;11.25;;
22131;SDS011;11232;51.748;19.390;2024-03-07T13:26:23;16.73;;;11.93;;
22131;SDS011;11232;51.748;19.390;2024-03-07T13:28:51;14.93;;;11.00;;
22131;SDS011;11232;51.748;19.390;2024-03-07T13:31:19;14.43;;;10.15;;
22131;SDS011;11232;51.748;19.390;2024-03-07T13:33:45;13.68;;;10.23;;
22131;SDS011;11232;51.748;19.390;2024-03-07T13:36:11;15.63;;;9.82;;
22131;SDS011;11232;51.748;19.390;2024-03-07T13:38:45;14.75;;;9.90;;
22131;SDS011;11232;51.748;19.390;2024-03-07T13:41:11;16.30;;;10.60;;
22131;SDS011;11232;51.748;19.390;2024-03-07T13:43:38;17.90;;;11.07;;
22131;SDS011;11232;51.748;19.390;2024-03-07T13:46:04;15.68;;;10.02;;
22131;SDS011;11232;51.748;19.390;2024-03-07T13:48:30;16.27;;;10.73;;
22131;SDS011;11232;51.748;19.390;2024-03-07T13:50:57;17.00;;;10.60;;
22131;SDS011;11232;51.748;19.390;2024-03-07T13:53:26;17.70;;;9.60;;
22131;SDS011;11232;51.748;19.390;2024-03-07T14:06:26;34.50;;;23.50;;
22131;SDS011;11232;51.748;19.390;2024-03-07T14:12:27;15.00;;;8.75;;
22131;SDS011;11232;51.748;19.390;2024-03-07T14:22:59;16.92;;;9.23;;
22131;SDS011;11232;51.748;19.390;2024-03-07T14:25:43;18.90;;;9.38;;
22131;SDS011;11232;51.748;19.390;2024-03-07T14:30:53;14.80;;;8.50;;
22131;SDS011;11232;51.748;19.390;2024-03-07T14:33:32;15.97;;;8.53;;
22131;SDS011;11232;51.748;19.390;2024-03-07T14:36:05;20.23;;;8.70;;
22131;SDS011;11232;51.748;19.390;2024-03-07T14:38:40;18.57;;;8.83;;
22131;SDS011;11232;51.748;19.390;2024-03-07T14:41:10;17.40;;;8.43;;
22131;SDS011;11232;51.748;19.390;2024-03-07T14:43:37;15.10;;;8.70;;
22131;SDS011;11232;51.748;19.390;2024-03-07T14:46:06;15.40;;;7.80;;